Time;durP1;ratioP1;P1;durP2;ratioP2;P2;SDS_P1;SDS_P2;PMS_P1;PMS_P2;Temp;Humidity;BMP_temperature;BMP_pressure;BME280_temperature;BME280_humidity;BME280_pressure;Samples;Min_cycle;Max_cycle;Signal;HPM_P1;HPM_P2
2022/04/17 11:15:17;;;;;;;4.00;2.70;;;26.10;24.80;;;;;;5088790;27;20387;-47
2022/04/17 11:17:43;;;;;;;5.70;2.70;;;25.60;27.30;;;;;;5083624;28;20094;-47
2022/04/17 11:20:10;;;;;;;4.07;2.50;;;26.10;27.00;;;;;;5068552;28;20029;-45
2022/04/17 11:22:37;;;;;;;4.78;2.75;;;26.70;26.20;;;;;;5068569;28;20051;-47
2022/04/17 11:25:05;;;;;;;7.95;2.80;;;27.50;26.40;;;;;;5074530;28;20020;-47
2022/04/17 11:27:46;;;;;;;4.33;2.80;;;27.20;24.30;;;;;;5088243;28;20107;-51
2022/04/17 11:30:14;;;;;;;4.50;2.97;;;27.40;25.60;;;;;;5088537;28;20310;-56
2022/04/17 11:32:40;;;;;;;4.22;2.50;;;26.60;23.50;;;;;;5088327;28;20502;-50
2022/04/17 11:35:11;;;;;;;3.97;2.75;;;27.80;25.10;;;;;;5075836;28;20028;-47
2022/04/17 11:37:37;;;;;;;4.70;2.47;;;27.90;25.00;;;;;;5065605;28;20033;-55
2022/04/17 11:40:13;;;;;;;3.85;2.35;;;28.10;25.70;;;;;;5065375;28;20472;-55
2022/04/17 11:42:45;;;;;;;5.05;2.90;;;28.70;24.40;;;;;;5068381;28;20031;-46
2022/04/17 11:45:12;;;;;;;3.88;2.67;;;27.70;23.50;;;;;;5066595;28;20024;-46
2022/04/17 11:47:40;;;;;;;4.53;2.95;;;27.20;24.10;;;;;;5066487;28;20653;-48
2022/04/17 11:50:10;;;;;;;4.15;2.80;;;26.80;23.20;;;;;;5066377;28;20104;-47
2022/04/17 11:52:37;;;;;;;5.30;2.97;;;26.60;23.10;;;;;;5068228;28;20120;-43
2022/04/17 11:55:03;;;;;;;3.83;2.50;;;25.40;24.90;;;;;;5068564;28;20525;-46
2022/04/17 11:57:29;;;;;;;6.10;3.10;;;25.20;27.00;;;;;;5065236;28;20112;-48
2022/04/17 11:59:56;;;;;;;7.97;3.00;;;25.80;26.50;;;;;;5074592;28;20120;-55
2022/04/17 12:02:26;;;;;;;5.05;3.20;;;25.70;25.80;;;;;;5067039;28;20024;-52
2022/04/17 12:04:57;;;;;;;5.65;2.70;;;25.20;26.80;;;;;;5075006;28;20035;-54
2022/04/17 12:07:25;;;;;;;6.50;3.13;;;25.10;29.50;;;;;;5067183;28;20052;-44
2022/04/17 12:10:08;;;;;;;5.38;3.30;;;24.90;25.80;;;;;;5070295;28;20093;-52
2022/04/17 12:12:43;;;;;;;5.78;3.40;;;24.10;26.30;;;;;;5074338;28;20112;-53
2022/04/17 12:15:15;;;;;;;6.78;3.20;;;23.70;27.50;;;;;;5087009;28;20032;-53
2022/04/17 12:17:41;;;;;;;5.03;3.13;;;23.80;29.50;;;;;;5072219;28;20108;-44
2022/04/17 12:20:09;;;;;;;5.40;3.40;;;23.90;29.00;;;;;;5067893;28;20090;-48
2022/04/17 12:22:36;;;;;;;6.25;3.38;;;24.10;27.90;;;;;;5078585;28;20089;-44
2022/04/17 12:25:02;;;;;;;6.43;2.95;;;24.70;29.30;;;;;;5071080;28;20468;-41
2022/04/17 12:27:28;;;;;;;7.05;3.63;;;24.30;28.90;;;;;;5065582;28;20024;-41
2022/04/17 12:29:56;;;;;;;4.50;2.92;;;24.80;27.00;;;;;;5064954;28;20021;-45
2022/04/17 12:32:23;;;;;;;6.53;3.67;;;23.70;28.30;;;;;;5071545;28;20032;-45
2022/04/17 12:35:04;;;;;;;4.75;2.92;;;24.00;26.10;;;;;;5065041;28;20619;-55
2022/04/17 12:37:31;;;;;;;4.97;3.40;;;24.00;26.70;;;;;;5065060;28;20033;-44
2022/04/17 12:40:10;;;;;;;7.93;3.40;;;24.10;26.60;;;;;;5054197;28;20032;-47
2022/04/17 12:42:37;;;;;;;5.22;3.30;;;24.70;26.80;;;;;;5054991;28;20061;-41
2022/04/17 12:45:04;;;;;;;4.95;3.35;;;24.10;25.90;;;;;;5052122;28;20111;-44
2022/04/17 12:47:29;;;;;;;5.32;3.28;;;24.30;26.10;;;;;;5052290;28;20149;-44
2022/04/17 12:50:11;;;;;;;5.15;3.10;;;24.40;26.40;;;;;;5052185;28;20392;-54
2022/04/17 12:52:37;;;;;;;4.93;3.20;;;24.50;26.60;;;;;;5052063;28;20025;-48
2022/04/17 12:55:10;;;;;;;5.18;3.00;;;24.10;28.10;;;;;;5056363;28;20040;-47
2022/04/17 12:57:37;;;;;;;4.75;3.22;;;24.20;31.10;;;;;;5053351;28;20051;-48
2022/04/17 13:00:17;;;;;;;5.30;3.17;;;23.50;26.00;;;;;;5052072;28;20041;-46
2022/04/17 13:02:43;;;;;;;5.72;3.42;;;22.70;27.00;;;;;;5051792;28;20060;-47
2022/04/17 13:05:20;;;;;;;5.85;3.03;;;22.50;28.20;;;;;;5052552;28;20553;-45
2022/04/17 13:07:45;;;;;;;5.35;3.42;;;22.40;29.40;;;;;;5051441;28;20391;-49
2022/04/17 13:10:11;;;;;;;6.28;3.20;;;22.30;29.20;;;;;;5051630;28;20017;-41
2022/04/17 13:12:44;;;;;;;5.30;3.72;;;22.10;30.00;;;;;;5054723;28;20036;-49
2022/04/17 13:15:11;;;;;;;5.13;3.20;;;22.10;30.80;;;;;;5052043;28;20057;-46
2022/04/17 13:17:50;;;;;;;4.55;3.17;;;21.80;31.10;;;;;;5051579;28;20476;-48
2022/04/17 13:20:18;;;;;;;5.50;3.17;;;21.80;32.00;;;;;;5050524;28;20063;-42
2022/04/17 13:22:45;;;;;;;6.10;3.38;;;21.50;31.10;;;;;;5056838;28;20436;-41
2022/04/17 13:25:12;;;;;;;6.60;3.50;;;20.70;30.10;;;;;;5055163;28;20042;-42
2022/04/17 13:27:39;;;;;;;5.28;3.35;;;20.50;31.30;;;;;;5051508;28;20040;-43
2022/04/17 13:30:09;;;;;;;9.25;6.40;;;20.60;31.70;;;;;;5053805;28;20064;-48
2022/04/17 13:32:35;;;;;;;12.90;3.65;;;20.30;32.10;;;;;;5049630;28;20048;-46
2022/04/17 13:35:01;;;;;;;5.95;3.38;;;20.50;32.60;;;;;;5052093;28;20383;-43
2022/04/17 13:40:11;;;;;;;5.55;3.58;;;20.20;29.70;;;;;;5052849;28;20043;-53
2022/04/17 13:42:38;;;;;;;6.22;3.15;;;20.20;31.10;;;;;;5053465;28;20119;-43
2022/04/17 13:45:06;;;;;;;5.90;3.45;;;20.30;34.90;;;;;;5072303;28;20036;-43
2022/04/17 13:47:32;;;;;;;5.75;3.50;;;20.30;30.00;;;;;;5072140;28;20467;-45
2022/04/17 13:49:58;;;;;;;5.78;2.92;;;20.00;30.10;;;;;;5059924;28;20063;-43
2022/04/17 13:52:25;;;;;;;4.80;2.88;;;19.80;29.90;;;;;;5051338;28;20458;-43
2022/04/17 13:54:51;;;;;;;5.78;3.45;;;20.10;31.40;;;;;;5050714;28;20511;-42
2022/04/17 13:57:17;;;;;;;6.13;3.22;;;20.00;30.00;;;;;;5057094;28;20029;-43
2022/04/17 13:59:43;;;;;;;6.13;3.42;;;19.90;28.90;;;;;;5052924;28;20074;-45
2022/04/17 14:02:09;;;;;;;5.53;3.60;;;19.80;30.40;;;;;;5051749;28;20112;-51
2022/04/17 14:04:35;;;;;;;9.43;5.13;;;19.00;29.60;;;;;;5051511;28;20051;-43
2022/04/17 14:07:01;;;;;;;5.55;3.70;;;18.70;31.40;;;;;;5051303;28;20095;-43
2022/04/17 14:09:32;;;;;;;5.72;3.38;;;18.50;33.20;;;;;;5051210;28;20021;-56
2022/04/17 14:11:58;;;;;;;8.45;3.63;;;18.30;33.10;;;;;;5051199;28;20035;-44
2022/04/17 14:14:24;;;;;;;6.95;3.65;;;18.40;33.50;;;;;;5061229;28;20052;-43
2022/04/17 14:16:50;;;;;;;10.88;3.55;;;18.40;35.80;;;;;;5072628;28;20076;-44
2022/04/17 14:19:16;;;;;;;6.13;3.10;;;18.60;33.30;;;;;;5078125;28;20417;-42
2022/04/17 14:21:41;;;;;;;6.15;3.72;;;19.00;34.80;;;;;;5082527;28;20503;-46
2022/04/17 14:24:07;;;;;;;6.82;4.07;;;18.90;33.50;;;;;;5066925;28;20025;-47
2022/04/17 14:26:32;;;;;;;7.60;3.80;;;18.90;31.80;;;;;;5065182;28;20025;-46
2022/04/17 14:28:58;;;;;;;6.30;3.47;;;18.70;32.60;;;;;;5084909;28;20032;-44
2022/04/17 14:31:24;;;;;;;6.20;3.70;;;18.80;32.90;;;;;;5071722;28;20020;-42
2022/04/17 14:33:50;;;;;;;6.60;3.83;;;18.50;33.30;;;;;;5067390;28;20048;-44
2022/04/17 14:36:17;;;;;;;5.88;3.65;;;18.70;32.30;;;;;;5055802;28;20025;-46
2022/04/17 14:38:43;;;;;;;7.43;4.07;;;19.00;32.20;;;;;;5054976;28;20025;-55
2022/04/17 14:41:09;;;;;;;5.22;3.33;;;18.70;32.60;;;;;;5056123;28;20155;-45
2022/04/17 14:43:37;;;;;;;6.63;3.35;;;18.60;33.60;;;;;;5070567;28;20025;-46
2022/04/17 14:46:02;;;;;;;6.85;3.60;;;18.90;31.90;;;;;;5063761;28;20048;-50
2022/04/17 14:48:28;;;;;;;6.07;3.45;;;18.70;30.50;;;;;;5053607;28;20487;-47
2022/04/17 14:50:55;;;;;;;6.38;3.63;;;18.90;33.90;;;;;;5050467;28;20487;-43
2022/04/17 14:53:20;;;;;;;5.32;3.17;;;18.90;31.10;;;;;;5050678;28;20087;-49
2022/04/17 14:55:48;;;;;;;5.07;3.22;;;18.50;31.80;;;;;;5063644;28;20468;-46
2022/04/17 14:58:14;;;;;;;5.38;3.03;;;18.80;31.70;;;;;;5057751;28;20057;-49
2022/04/17 15:00:40;;;;;;;5.60;3.10;;;18.70;30.50;;;;;;5051926;28;20070;-45
2022/04/17 15:03:05;;;;;;;5.80;3.00;;;18.80;30.00;;;;;;5061503;28;20037;-51
2022/04/17 15:05:31;;;;;;;5.20;3.20;;;18.70;29.20;;;;;;5050641;28;20036;-47
2022/04/17 15:07:57;;;;;;;5.47;2.97;;;18.50;28.20;;;;;;5050510;28;20480;-46
2022/04/17 15:10:22;;;;;;;5.65;3.20;;;18.40;29.90;;;;;;5050933;28;20472;-43
2022/04/17 15:12:48;;;;;;;5.63;3.17;;;18.50;28.40;;;;;;5053547;28;20036;-51
2022/04/17 15:15:15;;;;;;;5.90;3.33;;;18.40;30.30;;;;;;5054369;28;20441;-45
2022/04/17 15:17:40;;;;;;;7.60;3.88;;;18.60;31.50;;;;;;5059860;28;20029;-43
2022/04/17 15:20:07;;;;;;;7.28;4.43;;;18.80;31.20;;;;;;5065051;28;20028;-43
2022/04/17 15:22:32;;;;;;;8.38;5.00;;;18.30;29.70;;;;;;5065174;28;20025;-43
2022/04/17 15:25:00;;;;;;;8.00;4.10;;;18.50;30.10;;;;;;5063516;28;20190;-46
2022/04/17 15:27:25;;;;;;;7.45;3.88;;;18.30;29.60;;;;;;5064484;28;20111;-49
2022/04/17 15:29:51;;;;;;;8.65;5.05;;;18.50;31.10;;;;;;5066624;28;20102;-44
2022/04/17 15:32:17;;;;;;;8.38;4.15;;;18.60;32.40;;;;;;5067234;28;20167;-45
2022/04/17 15:34:42;;;;;;;8.13;4.35;;;18.60;32.60;;;;;;5064732;28;20530;-42
2022/04/17 15:37:08;;;;;;;9.05;5.60;;;18.60;33.00;;;;;;5067198;28;20021;-46
2022/04/17 15:39:33;;;;;;;8.30;4.93;;;18.40;31.00;;;;;;5061992;28;20154;-47
2022/04/17 15:42:03;;;;;;;9.70;5.18;;;18.40;32.40;;;;;;5069008;28;20017;-47
2022/04/17 15:49:57;;;;;;;8.65;4.95;;;18.10;34.00;;;;;;5052085;28;20044;-45
2022/04/17 15:52:24;;;;;;;11.23;5.65;;;18.30;34.40;;;;;;5059026;28;20463;-43
2022/04/17 15:54:51;;;;;;;9.98;5.57;;;18.30;35.10;;;;;;5060679;28;20041;-43
2022/04/17 15:57:19;;;;;;;10.13;5.60;;;18.30;33.30;;;;;;5067215;28;20025;-43
2022/04/17 15:59:44;;;;;;;9.38;5.60;;;18.40;34.40;;;;;;5071273;28;20373;-43
2022/04/17 16:02:10;;;;;;;9.57;5.72;;;18.30;34.90;;;;;;5066319;28;20029;-41
2022/04/17 16:04:36;;;;;;;10.80;6.10;;;18.20;35.00;;;;;;5060816;28;20064;-42
2022/04/17 16:07:02;;;;;;;9.70;5.93;;;18.30;34.10;;;;;;5060476;28;20734;-42
2022/04/17 16:09:27;;;;;;;10.38;5.60;;;18.40;34.40;;;;;;5056993;28;20438;-43
2022/04/17 16:11:53;;;;;;;8.30;5.60;;;18.40;35.50;;;;;;5074116;28;20128;-49
2022/04/17 16:14:19;;;;;;;9.32;5.22;;;18.30;34.20;;;;;;5062031;28;20057;-45
2022/04/17 16:16:44;;;;;;;22.95;6.03;;;18.40;35.80;;;;;;5054797;28;20484;-53
2022/04/17 16:19:13;;;;;;;10.13;5.68;;;18.40;35.70;;;;;;5073608;28;20364;-52
2022/04/17 16:21:40;;;;;;;8.82;5.50;;;18.50;36.00;;;;;;5073794;28;20036;-56
2022/04/17 16:24:06;;;;;;;11.63;6.25;;;18.40;34.00;;;;;;5073643;28;20028;-51
2022/04/17 16:26:32;;;;;;;8.68;5.40;;;18.30;32.90;;;;;;5073766;28;20444;-47
2022/04/17 16:28:57;;;;;;;9.70;5.97;;;18.20;35.20;;;;;;5073615;28;20502;-49
2022/04/17 16:31:23;;;;;;;11.60;5.80;;;18.30;34.00;;;;;;5073646;28;20027;-52
2022/04/17 16:33:49;;;;;;;8.32;5.70;;;18.20;33.50;;;;;;5073504;28;20040;-47
2022/04/17 16:36:15;;;;;;;8.90;5.85;;;18.20;34.50;;;;;;5069078;28;20080;-50
2022/04/17 16:38:41;;;;;;;9.82;5.88;;;18.10;33.70;;;;;;5062530;28;20060;-49
2022/04/17 16:41:08;;;;;;;12.82;6.70;;;18.20;35.50;;;;;;5058511;28;20549;-45
2022/04/17 16:43:37;;;;;;;9.80;6.35;;;18.00;33.60;;;;;;5066814;28;20487;-47
2022/04/17 16:46:03;;;;;;;11.33;6.03;;;18.00;34.80;;;;;;5069319;28;20036;-45
2022/04/17 16:48:29;;;;;;;9.68;6.15;;;17.90;34.60;;;;;;5069054;28;20051;-49
2022/04/17 16:50:54;;;;;;;9.18;5.80;;;17.80;34.60;;;;;;5073517;28;20392;-48
2022/04/17 16:53:23;;;;;;;9.25;6.10;;;17.90;36.70;;;;;;5055564;28;20051;-46
2022/04/17 16:55:52;;;;;;;11.05;5.95;;;17.90;36.50;;;;;;5071168;28;20036;-49
2022/04/17 17:01:03;;;;;;;10.20;5.82;;;17.80;37.60;;;;;;5066416;28;20036;-46
2022/04/17 17:03:29;;;;;;;9.63;5.05;;;17.90;36.60;;;;;;5067484;28;20040;-48
2022/04/17 17:05:55;;;;;;;12.25;5.38;;;18.00;38.10;;;;;;5070066;28;20161;-43
2022/04/17 17:08:20;;;;;;;8.95;5.03;;;18.10;37.00;;;;;;5061231;28;20078;-42
2022/04/17 17:10:46;;;;;;;9.32;6.05;;;18.10;37.80;;;;;;5052871;28;20029;-51
2022/04/17 17:13:12;;;;;;;8.77;5.65;;;18.10;35.50;;;;;;5052826;28;20045;-49
2022/04/17 17:15:37;;;;;;;10.07;5.95;;;18.10;37.30;;;;;;5053060;28;20489;-50
2022/04/17 17:18:03;;;;;;;10.73;6.60;;;18.00;35.20;;;;;;5056077;28;20032;-55
2022/04/17 17:20:29;;;;;;;9.80;5.88;;;17.80;34.50;;;;;;5055863;28;20115;-59
2022/04/17 17:22:56;;;;;;;8.27;5.72;;;17.80;35.70;;;;;;5051384;28;20032;-44
2022/04/17 17:25:21;;;;;;;9.05;5.55;;;17.80;37.00;;;;;;5054629;28;20036;-55
2022/04/17 17:27:47;;;;;;;11.18;5.78;;;17.70;37.10;;;;;;5050433;28;20021;-49
2022/04/17 17:30:13;;;;;;;8.55;5.35;;;17.60;37.20;;;;;;5059632;28;20475;-48
2022/04/17 17:32:38;;;;;;;8.55;5.28;;;17.50;35.60;;;;;;5071559;28;20037;-47
2022/04/17 17:35:05;;;;;;;8.50;5.28;;;17.40;38.20;;;;;;5053712;28;20025;-47
2022/04/17 17:37:34;;;;;;;7.20;4.57;;;17.20;39.30;;;;;;5053342;28;20059;-43
2022/04/17 17:40:00;;;;;;;10.43;7.63;;;17.20;41.70;;;;;;5062935;28;20438;-44
2022/04/17 17:42:26;;;;;;;14.43;9.20;;;17.20;38.90;;;;;;5071661;28;20032;-48
2022/04/17 17:44:52;;;;;;;15.68;13.02;;;17.10;38.20;;;;;;5059051;28;20025;-47
2022/04/17 17:47:18;;;;;;;16.23;12.50;;;17.10;38.00;;;;;;5061827;28;20025;-44
2022/04/17 17:49:44;;;;;;;15.52;9.60;;;17.10;38.70;;;;;;5064491;28;20115;-49
2022/04/17 17:52:09;;;;;;;14.85;9.85;;;17.00;38.60;;;;;;5055633;28;20090;-44
2022/04/17 17:54:35;;;;;;;11.77;6.10;;;16.90;37.80;;;;;;5051105;28;20424;-52
2022/04/17 17:57:01;;;;;;;94.00;64.78;;;16.80;38.90;;;;;;5056114;28;20486;-46
2022/04/17 17:59:28;;;;;;;9.15;5.32;;;16.70;39.30;;;;;;5058207;28;20048;-47
2022/04/17 18:01:57;;;;;;;8.80;5.43;;;16.60;38.90;;;;;;5050905;28;20048;-50
2022/04/17 18:04:23;;;;;;;11.53;6.30;;;16.40;38.70;;;;;;5053570;28;20021;-43
2022/04/17 18:06:49;;;;;;;9.30;5.18;;;16.30;39.30;;;;;;5052261;28;20119;-47
2022/04/17 18:14:45;;;;;;;9.07;4.28;;;16.00;41.60;;;;;;5070916;28;20616;-54
2022/04/17 18:17:12;;;;;;;8.65;4.60;;;15.80;42.40;;;;;;5064378;28;20021;-47
2022/04/17 18:19:38;;;;;;;8.73;5.28;;;15.60;43.00;;;;;;5051164;28;20033;-50
2022/04/17 18:24:49;;;;;;;6.93;4.40;;;15.30;44.60;;;;;;5059279;28;20063;-42
2022/04/17 18:27:15;;;;;;;8.98;4.63;;;15.30;43.90;;;;;;5054669;28;20039;-45
2022/04/17 18:29:41;;;;;;;10.18;4.93;;;15.20;42.90;;;;;;5051629;28;20020;-46
2022/04/17 18:32:07;;;;;;;8.00;4.50;;;15.10;45.30;;;;;;5051589;28;20079;-46
2022/04/17 18:34:33;;;;;;;9.65;4.72;;;15.00;45.40;;;;;;5053310;28;20025;-48
2022/04/17 18:36:58;;;;;;;9.20;5.03;;;14.90;44.50;;;;;;5063050;28;20148;-47
2022/04/17 18:39:24;;;;;;;6.82;4.07;;;14.80;45.20;;;;;;5057047;28;20029;-46
2022/04/17 18:41:50;;;;;;;7.20;4.28;;;14.60;45.60;;;;;;5056922;28;20016;-48
2022/04/17 18:44:16;;;;;;;9.60;4.95;;;14.40;45.80;;;;;;5053919;28;20439;-49
2022/04/17 18:46:42;;;;;;;7.80;4.60;;;14.30;48.00;;;;;;5050471;28;20021;-44
2022/04/17 18:49:09;;;;;;;8.40;4.80;;;14.20;47.10;;;;;;5052790;28;20443;-43
2022/04/17 18:51:35;;;;;;;7.18;4.63;;;14.10;47.90;;;;;;5050831;28;20049;-43
2022/04/17 18:54:01;;;;;;;8.48;4.90;;;14.00;47.80;;;;;;5058112;28;20121;-45
2022/04/17 18:56:26;;;;;;;8.38;5.53;;;13.90;49.70;;;;;;5070847;28;20025;-44
2022/04/17 18:58:52;;;;;;;9.63;5.65;;;13.80;51.40;;;;;;5071196;28;20028;-45
2022/04/17 19:01:18;;;;;;;10.43;5.90;;;13.70;50.90;;;;;;5056767;28;20044;-42
2022/04/17 19:03:43;;;;;;;9.82;5.65;;;13.60;50.30;;;;;;5055882;28;20052;-54
2022/04/17 19:06:09;;;;;;;10.10;5.65;;;13.50;51.70;;;;;;5064587;28;20422;-45
2022/04/17 19:08:35;;;;;;;9.60;5.13;;;13.50;51.40;;;;;;5071032;28;20413;-46
2022/04/17 19:14:01;;;;;;;11.23;6.13;;;13.30;50.60;;;;;;5050775;28;20047;-47
2022/04/17 19:16:30;;;;;;;11.75;6.03;;;13.30;51.30;;;;;;5050936;28;20033;-53
2022/04/17 19:18:56;;;;;;;9.88;5.45;;;13.20;52.10;;;;;;5050635;28;20045;-45
2022/04/17 19:21:21;;;;;;;10.30;5.47;;;13.20;54.00;;;;;;5050863;28;20028;-49
2022/04/17 19:23:47;;;;;;;9.18;5.30;;;13.10;53.20;;;;;;5050744;28;20037;-45
2022/04/17 19:26:13;;;;;;;8.35;4.78;;;13.00;53.80;;;;;;5050800;28;20028;-42
2022/04/17 19:28:39;;;;;;;9.43;4.90;;;12.90;55.10;;;;;;5050802;28;20064;-48
2022/04/17 19:36:33;;;;;;;8.15;5.07;;;12.60;58.60;;;;;;5066656;28;20035;-42
2022/04/17 19:39:03;;;;;;;6.57;4.30;;;12.50;59.00;;;;;;5074714;28;20426;-43
2022/04/17 19:41:28;;;;;;;7.78;4.78;;;12.40;58.00;;;;;;5074756;28;20017;-43
2022/04/17 19:43:54;;;;;;;9.48;4.30;;;12.30;57.50;;;;;;5074419;28;20107;-45
2022/04/17 19:46:20;;;;;;;9.65;3.97;;;12.10;58.60;;;;;;5060887;28;20021;-50
2022/04/17 19:48:46;;;;;;;8.02;4.45;;;12.00;59.80;;;;;;5056488;28;20086;-48
2022/04/17 19:51:12;;;;;;;9.95;5.20;;;11.90;60.20;;;;;;5065914;28;20083;-44
2022/04/17 19:53:38;;;;;;;7.15;3.95;;;11.80;59.60;;;;;;5057884;28;20067;-55
2022/04/17 19:56:04;;;;;;;6.60;4.20;;;11.70;60.10;;;;;;5053927;28;20056;-49
2022/04/17 19:58:30;;;;;;;7.82;4.97;;;11.60;61.40;;;;;;5055073;28;20043;-49
2022/04/17 20:00:57;;;;;;;9.40;5.20;;;11.60;61.90;;;;;;5062979;28;20029;-42
2022/04/17 20:03:23;;;;;;;12.13;6.18;;;11.50;62.80;;;;;;5058681;28;20071;-47
2022/04/17 20:05:49;;;;;;;10.10;7.10;;;11.40;62.60;;;;;;5061898;28;20055;-42
2022/04/17 20:08:16;;;;;;;9.82;5.55;;;11.40;63.70;;;;;;5067357;28;20021;-51
2022/04/17 20:10:41;;;;;;;11.10;6.10;;;11.30;62.90;;;;;;5064044;28;20060;-44
2022/04/17 20:13:08;;;;;;;7.97;4.88;;;11.30;64.30;;;;;;5071208;28;20071;-46
2022/04/17 20:15:34;;;;;;;10.48;5.60;;;11.30;64.50;;;;;;5059237;28;20036;-45
2022/04/17 20:17:59;;;;;;;10.00;5.45;;;11.30;64.30;;;;;;5062670;28;20025;-49
2022/04/17 20:20:25;;;;;;;9.80;5.55;;;11.30;64.10;;;;;;5071599;28;20093;-47
2022/04/17 20:22:51;;;;;;;9.57;5.93;;;11.40;63.20;;;;;;5072222;28;20024;-52
2022/04/17 20:25:17;;;;;;;12.20;5.45;;;11.40;63.80;;;;;;5066178;28;20071;-49
2022/04/17 20:27:43;;;;;;;8.27;5.53;;;11.50;64.70;;;;;;5053786;28;20040;-47
2022/04/17 20:30:12;;;;;;;8.57;5.47;;;11.60;65.70;;;;;;5060140;28;20025;-49
2022/04/17 20:32:38;;;;;;;8.18;5.60;;;11.60;66.70;;;;;;5073881;28;20059;-45
2022/04/17 20:35:05;;;;;;;8.95;5.70;;;11.60;67.60;;;;;;5071600;28;20075;-45
2022/04/17 20:37:32;;;;;;;9.10;5.32;;;11.50;67.40;;;;;;5055396;28;20116;-54
2022/04/17 20:40:01;;;;;;;7.68;4.82;;;11.50;66.70;;;;;;5056083;28;20127;-46
2022/04/17 20:42:27;;;;;;;9.88;5.47;;;11.40;67.20;;;;;;5054856;28;20380;-55
2022/04/17 20:50:34;;;;;;;7.03;4.70;;;11.20;66.50;;;;;;5059532;28;20526;-45
2022/04/17 20:53:03;;;;;;;9.07;4.97;;;11.20;67.70;;;;;;5053289;28;20364;-49
2022/04/17 20:55:29;;;;;;;12.23;5.57;;;11.10;66.60;;;;;;5054645;28;20489;-43
2022/04/17 20:57:54;;;;;;;9.40;5.35;;;11.10;67.00;;;;;;5052205;28;20100;-46
2022/04/17 21:00:21;;;;;;;8.27;5.47;;;11.00;67.20;;;;;;5052715;28;20021;-55
2022/04/17 21:02:46;;;;;;;9.18;6.60;;;10.90;67.50;;;;;;5052228;28;20536;-50
2022/04/17 21:05:12;;;;;;;9.30;5.82;;;10.80;67.30;;;;;;5055116;28;20028;-44
2022/04/17 21:07:39;;;;;;;10.30;6.75;;;10.80;68.80;;;;;;5052967;28;20020;-47
2022/04/17 21:10:05;;;;;;;12.60;7.18;;;10.70;70.40;;;;;;5054670;28;20017;-45
2022/04/17 21:12:31;;;;;;;10.80;6.65;;;10.70;69.70;;;;;;5052597;28;20435;-48
2022/04/17 21:14:57;;;;;;;11.10;6.43;;;10.70;69.80;;;;;;5052542;28;20602;-42
2022/04/17 21:17:23;;;;;;;11.73;7.07;;;10.60;70.10;;;;;;5052361;28;20096;-47
2022/04/17 21:19:49;;;;;;;13.00;6.97;;;10.60;70.30;;;;;;5049506;28;20115;-46
2022/04/17 21:22:15;;;;;;;11.80;7.00;;;10.50;69.90;;;;;;5050986;28;20112;-46
2022/04/17 21:24:41;;;;;;;11.25;7.28;;;10.40;71.00;;;;;;5050923;28;20116;-48
2022/04/17 21:27:06;;;;;;;12.63;7.97;;;10.40;70.70;;;;;;5050636;28;20103;-49
2022/04/17 21:29:32;;;;;;;12.43;7.10;;;10.30;70.30;;;;;;5050873;28;20025;-51
2022/04/17 21:31:58;;;;;;;11.23;7.57;;;10.20;71.80;;;;;;5050685;28;20104;-50
2022/04/17 21:34:24;;;;;;;11.13;7.63;;;10.00;73.10;;;;;;5050552;28;20036;-49
2022/04/17 21:36:54;;;;;;;14.60;8.23;;;9.90;74.30;;;;;;5068550;28;20100;-53
2022/04/17 21:39:20;;;;;;;12.13;8.07;;;9.80;75.70;;;;;;5070988;28;20078;-53
2022/04/17 21:41:47;;;;;;;16.15;9.70;;;9.80;76.50;;;;;;5055424;28;20029;-42
2022/04/17 21:44:13;;;;;;;14.65;8.82;;;9.70;76.00;;;;;;5050626;28;20431;-43
2022/04/17 21:46:39;;;;;;;14.57;9.25;;;9.70;75.90;;;;;;5050244;28;20052;-52
2022/04/17 21:49:05;;;;;;;15.02;9.48;;;9.70;76.50;;;;;;5051063;28;20056;-48
2022/04/17 21:51:34;;;;;;;14.90;10.00;;;9.70;77.10;;;;;;5066681;28;20009;-49
2022/04/17 21:54:00;;;;;;;15.45;8.90;;;9.70;77.80;;;;;;5059515;28;20051;-45
2022/04/17 21:56:26;;;;;;;15.00;9.35;;;9.60;77.20;;;;;;5066801;28;20027;-52
2022/04/17 21:58:51;;;;;;;15.70;9.60;;;9.60;76.60;;;;;;5063965;28;20028;-44
2022/04/17 22:06:46;;;;;;;10.77;6.93;;;9.50;77.20;;;;;;5061051;28;20078;-48
2022/04/17 22:09:13;;;;;;;12.27;7.85;;;9.40;78.50;;;;;;5050496;28;20041;-47
2022/04/17 22:11:39;;;;;;;12.32;7.75;;;9.30;78.90;;;;;;5050807;28;20079;-51
2022/04/17 22:14:06;;;;;;;14.07;8.77;;;9.30;80.20;;;;;;5049658;28;20135;-46
2022/04/17 22:16:31;;;;;;;13.85;8.93;;;9.20;79.80;;;;;;5050177;28;20526;-52
2022/04/17 22:18:57;;;;;;;15.27;9.18;;;9.20;80.00;;;;;;5050268;28;20064;-45
2022/04/17 22:21:22;;;;;;;15.50;8.95;;;9.20;80.20;;;;;;5050367;28;20035;-46
2022/04/17 22:23:48;;;;;;;12.07;8.40;;;9.10;79.30;;;;;;5050007;28;20111;-49
2022/04/17 22:26:14;;;;;;;14.75;9.10;;;9.10;79.90;;;;;;5050992;28;20083;-47
2022/04/17 22:28:39;;;;;;;12.68;9.07;;;9.10;79.80;;;;;;5050085;28;20040;-45
2022/04/17 22:31:05;;;;;;;13.93;8.20;;;9.10;79.80;;;;;;5050529;28;20037;-43
2022/04/17 22:33:31;;;;;;;12.55;8.10;;;9.00;80.10;;;;;;5049661;28;20691;-43
2022/04/17 22:35:57;;;;;;;14.80;8.05;;;9.00;80.30;;;;;;5053141;28;20056;-46
2022/04/17 22:38:23;;;;;;;12.63;8.27;;;8.90;81.20;;;;;;5056479;28;20086;-50
2022/04/17 22:40:48;;;;;;;14.88;8.45;;;8.90;80.50;;;;;;5049555;28;20103;-48
2022/04/17 22:43:14;;;;;;;12.90;8.05;;;8.80;80.90;;;;;;5050655;28;20049;-48
2022/04/17 22:45:39;;;;;;;12.25;7.70;;;8.80;80.50;;;;;;5049070;28;20046;-44
2022/04/17 22:48:05;;;;;;;12.35;8.15;;;8.70;80.50;;;;;;5050283;28;20022;-48
2022/04/17 22:50:31;;;;;;;14.15;9.30;;;8.70;80.40;;;;;;5049484;28;20037;-45
2022/04/17 22:52:57;;;;;;;14.63;9.15;;;8.70;81.10;;;;;;5049826;28;20163;-47
2022/04/17 22:55:22;;;;;;;14.90;9.43;;;8.60;80.60;;;;;;5050667;28;20521;-46
2022/04/17 22:57:48;;;;;;;14.38;8.88;;;8.70;80.00;;;;;;5081170;28;20387;-43
2022/04/17 23:02:58;;;;;;;14.70;8.38;;;8.70;79.60;;;;;;5054896;28;20041;-42
2022/04/17 23:05:26;;;;;;;16.25;8.52;;;8.70;80.10;;;;;;5062159;28;20036;-48
2022/04/17 23:07:51;;;;;;;12.13;8.25;;;8.60;80.80;;;;;;5051307;28;20427;-46
2022/04/17 23:10:17;;;;;;;14.10;9.10;;;8.40;81.90;;;;;;5049062;28;20033;-44
2022/04/17 23:12:43;;;;;;;14.77;8.80;;;8.40;82.30;;;;;;5050480;28;20029;-42
2022/04/17 23:15:10;;;;;;;12.45;8.32;;;8.20;82.90;;;;;;5050251;28;20403;-42
2022/04/17 23:17:35;;;;;;;17.38;10.20;;;8.20;82.80;;;;;;5049222;28;20507;-50
2022/04/17 23:20:02;;;;;;;14.18;8.88;;;8.20;82.60;;;;;;5049284;28;20021;-47
2022/04/17 23:22:27;;;;;;;16.15;8.98;;;8.20;82.80;;;;;;5049022;28;20013;-47
2022/04/17 23:24:53;;;;;;;14.82;9.45;;;8.20;83.40;;;;;;5049553;28;20442;-47
2022/04/17 23:27:19;;;;;;;14.93;8.95;;;8.10;83.60;;;;;;5050277;28;20029;-51
2022/04/17 23:29:45;;;;;;;15.68;9.63;;;8.10;83.90;;;;;;5048448;28;20347;-42
2022/04/17 23:32:11;;;;;;;14.70;8.57;;;8.00;84.20;;;;;;5050831;28;20059;-43
2022/04/17 23:34:36;;;;;;;15.95;8.98;;;7.90;84.80;;;;;;5052089;28;20033;-50
2022/04/17 23:37:02;;;;;;;13.18;8.40;;;7.90;84.20;;;;;;5058093;28;20075;-46
2022/04/17 23:39:28;;;;;;;14.82;9.13;;;7.90;84.30;;;;;;5060168;28;20037;-41
2022/04/17 23:41:53;;;;;;;18.88;10.38;;;7.90;84.00;;;;;;5049486;28;20052;-43
2022/04/17 23:44:19;;;;;;;14.10;9.40;;;7.80;85.10;;;;;;5049668;28;20040;-56
2022/04/17 23:46:45;;;;;;;16.92;10.45;;;7.80;85.80;;;;;;5050546;28;20027;-49
2022/04/17 23:49:10;;;;;;;14.95;9.27;;;7.80;87.00;;;;;;5048833;28;20021;-47
2022/04/17 23:51:37;;;;;;;14.05;9.05;;;7.70;86.40;;;;;;5049966;28;20032;-44
2022/04/17 23:54:02;;;;;;;16.35;10.45;;;7.70;86.40;;;;;;5048673;28;20033;-48
2022/04/17 23:56:28;;;;;;;14.50;9.48;;;7.70;86.40;;;;;;5047941;28;20048;-51
2022/04/17 23:58:54;;;;;;;15.32;9.35;;;7.70;86.00;;;;;;5048862;28;20071;-47
